Matucana, Peru
Current Conditions -  °F | °C
As of 11:00 PM on Monday 20 Oct 2014 (Local Time) from SPIM Reporting Station
Scattered Clouds Scattered Clouds  
Wind Chill: 64°   Ceiling: Unl
Heat Index: 64°   Visibility: 6mi
Dew Point: 59°   Wind: 10mph
Humidity: 83%   Direction: 160°SSE
Pressure: 29.94"   Gusts: NA
Location:  11.85°S, 76.4°W
Report Text: SPIM 210400Z 16009KT 9999 FEW010 SCT023 18/15 Q1014 NOSIG RMK PP000
Loading
Personal Weather Stations






























Interactive Weather Map
Tropical Storm Tracking
New forecast layout! Learn more

10-Day Weather Forecast

Advertisements
Track Severe Weather on mobile